createdAt,value
2023-08-09T00:00:56.364Z,0.30
2023-08-09T00:05:59.989Z,0.50
2023-08-09T00:11:03.594Z,0.50
2023-08-09T00:16:08.772Z,0.50
2023-08-09T00:21:12.545Z,0.40
2023-08-09T00:26:16.197Z,0.60
2023-08-09T00:31:21.239Z,0.43
2023-08-09T00:36:24.838Z,0.30
2023-08-09T00:41:28.485Z,0.40
2023-08-09T00:46:33.492Z,0.50
2023-08-09T00:51:37.363Z,0.40
2023-08-09T00:56:41.459Z,0.50
2023-08-09T01:01:46.477Z,0.40
2023-08-09T01:06:57.575Z,0.47
2023-08-09T01:12:05.016Z,0.40
2023-08-09T01:17:12.069Z,0.60
2023-08-09T01:22:18.818Z,0.60
2023-08-09T01:27:24.681Z,0.50
2023-08-09T01:32:29.435Z,0.40
2023-08-09T01:37:39.550Z,0.43
2023-08-09T01:42:44.732Z,0.60
2023-08-09T01:47:48.448Z,0.50
2023-08-09T01:52:56.391Z,0.60
2023-08-09T01:58:01.682Z,0.40
2023-08-09T02:03:05.912Z,0.50
2023-08-09T02:08:09.507Z,0.40
2023-08-09T02:13:15.439Z,0.50
2023-08-09T02:18:19.391Z,0.30
2023-08-09T02:23:23.227Z,0.40
2023-08-09T02:28:28.232Z,0.30
2023-08-09T02:33:31.839Z,0.30
2023-08-09T02:38:35.486Z,0.27
2023-08-09T02:43:40.631Z,0.30
2023-08-09T02:48:44.300Z,0.40
2023-08-09T02:54:01.027Z,0.30
2023-08-09T02:59:06.250Z,0.20
2023-08-09T03:04:09.866Z,0.20
2023-08-09T03:09:13.577Z,0.30
2023-08-09T03:14:18.806Z,0.23
2023-08-09T03:19:22.517Z,0.20
2023-08-09T03:24:26.919Z,0.30
2023-08-09T03:29:32.191Z,0.20
2023-08-09T03:34:35.864Z,0.17
2023-08-09T03:39:41.179Z,0.20
2023-08-09T03:44:46.255Z,0.30
2023-08-09T03:49:49.956Z,0.10
2023-08-09T03:54:55.126Z,0.13
2023-08-09T04:00:00.197Z,0.20
2023-08-09T04:05:06.156Z,0.20
2023-08-09T04:10:10.645Z,0.23
2023-08-09T04:15:15.624Z,0.20
2023-08-09T04:20:20.276Z,0.20
2023-08-09T04:25:23.914Z,0.23
2023-08-09T04:30:28.891Z,0.10
2023-08-09T04:35:32.604Z,0.30
2023-08-09T04:40:37.602Z,0.30
2023-08-09T04:45:42.667Z,0.30
2023-08-09T04:50:46.301Z,0.20
2023-08-09T04:55:49.916Z,0.40
2023-08-09T05:00:55.451Z,0.30
2023-08-09T05:05:59.562Z,0.33
2023-08-09T05:11:03.150Z,0.30
2023-08-09T05:16:08.188Z,0.37
2023-08-09T05:21:11.776Z,0.50
2023-08-09T05:26:15.449Z,0.40
2023-08-09T05:31:22.492Z,0.30
2023-08-09T05:36:27.731Z,0.30
2023-08-09T05:41:31.332Z,0.37
2023-08-09T05:46:36.402Z,0.40
2023-08-09T05:51:40.031Z,0.40
2023-08-09T05:56:43.707Z,0.40
2023-08-09T06:01:50.481Z,0.20
2023-08-09T06:06:54.144Z,0.30
2023-08-09T06:11:57.746Z,0.30
2023-08-09T06:17:03.159Z,0.43
2023-08-09T06:22:07.072Z,0.47
2023-08-09T06:27:10.971Z,0.53
2023-08-09T06:32:16.069Z,0.40
2023-08-09T06:37:19.726Z,0.33
2023-08-09T06:42:23.348Z,0.40
2023-08-09T06:47:30.556Z,0.40
2023-08-09T06:52:34.529Z,0.37
2023-08-09T06:57:38.533Z,0.60
2023-08-09T07:02:43.984Z,0.53
2023-08-09T07:07:48.865Z,0.60
2023-08-09T07:12:52.685Z,0.40
2023-08-09T07:17:57.902Z,0.40
2023-08-09T07:23:01.725Z,0.40
2023-08-09T07:28:06.247Z,0.47
2023-08-09T07:33:11.321Z,0.50
2023-08-09T07:38:14.915Z,0.47
2023-08-09T07:43:18.514Z,0.50
2023-08-09T07:48:23.471Z,0.50
2023-08-09T07:53:27.563Z,0.40
2023-08-09T07:58:31.186Z,0.47
2023-08-09T08:03:36.195Z,0.57
2023-08-09T08:08:40.357Z,0.40
2023-08-09T08:13:43.980Z,0.47
2023-08-09T08:18:48.989Z,0.47
2023-08-09T08:23:52.606Z,0.50
2023-08-09T08:28:56.173Z,0.43
2023-08-09T08:34:01.216Z,0.40
2023-08-09T08:39:06.896Z,0.40
2023-08-09T08:44:12.615Z,0.50
2023-08-09T08:49:22.793Z,0.40
2023-08-09T08:54:28.483Z,0.40
2023-08-09T08:59:32.957Z,0.40
2023-08-09T09:04:40.058Z,0.40
2023-08-09T09:09:46.361Z,0.50
2023-08-09T09:14:52.663Z,0.40
2023-08-09T09:19:57.782Z,0.40
2023-08-09T09:25:02.066Z,0.30
2023-08-09T09:30:13.434Z,0.40
2023-08-09T09:35:21.431Z,0.50
2023-08-09T09:40:25.611Z,0.40
2023-08-09T09:45:31.435Z,0.30
2023-08-09T09:50:36.461Z,0.40
2023-08-09T09:55:40.119Z,0.40
2023-08-09T10:00:49.250Z,0.47
2023-08-09T10:05:55.352Z,0.40
2023-08-09T10:10:59.847Z,0.50
2023-08-09T10:16:06.522Z,0.50
2023-08-09T10:21:12.702Z,0.40
2023-08-09T10:26:18.248Z,0.40
2023-08-09T10:31:49.193Z,0.40
2023-08-09T10:36:56.100Z,0.47
2023-08-09T10:42:03.063Z,0.37
2023-08-09T10:47:08.794Z,0.40
2023-08-09T10:52:19.422Z,0.40
2023-08-09T10:57:24.451Z,0.40
2023-08-09T11:02:28.145Z,0.43
2023-08-09T11:07:33.305Z,0.40
2023-08-09T11:12:37.024Z,0.60
2023-08-09T11:17:49.813Z,0.40
2023-08-09T11:22:59.018Z,0.50
2023-08-09T11:28:05.911Z,0.50
2023-08-09T11:33:11.414Z,0.40
2023-08-09T11:38:18.010Z,0.50
2023-08-09T11:43:22.793Z,0.60
2023-08-09T11:48:28.217Z,0.50
2023-08-09T11:53:33.965Z,0.60
2023-08-09T11:58:38.320Z,0.50
2023-08-09T12:03:42.038Z,0.70
2023-08-09T12:08:47.298Z,0.60
2023-08-09T12:13:50.951Z,0.50
2023-08-09T12:18:54.568Z,0.70
2023-08-09T12:23:59.630Z,0.70
2023-08-09T12:29:03.416Z,0.63
2023-08-09T12:34:09.280Z,0.60
2023-08-09T12:39:15.328Z,0.63
2023-08-09T12:44:18.966Z,0.50
2023-08-09T12:49:22.987Z,0.70
2023-08-09T12:54:27.937Z,0.63
2023-08-09T12:59:31.661Z,0.50
2023-08-09T13:04:35.534Z,0.67
2023-08-09T13:09:40.616Z,0.97
2023-08-09T13:14:44.399Z,0.70
2023-08-09T13:19:48.485Z,0.80
2023-08-09T13:24:53.519Z,0.67
2023-08-09T13:29:57.625Z,0.77
2023-08-09T13:35:01.437Z,0.77
2023-08-09T13:40:10.316Z,0.80
2023-08-09T13:45:14.316Z,0.83
2023-08-09T13:50:18.152Z,0.90
2023-08-09T13:55:23.260Z,0.83
2023-08-09T14:00:28.299Z,0.60
2023-08-09T14:05:32.057Z,0.60
2023-08-09T14:10:37.121Z,0.60
2023-08-09T14:15:40.832Z,0.70
2023-08-09T14:20:44.507Z,0.60
2023-08-09T14:25:49.496Z,0.80
2023-08-09T14:30:53.264Z,0.80
2023-08-09T14:35:57.704Z,0.70
2023-08-09T14:41:02.890Z,0.70
2023-08-09T14:46:06.495Z,0.70
2023-08-09T14:51:10.453Z,0.70
2023-08-09T14:56:15.427Z,0.70
2023-08-09T15:01:19.091Z,0.60
2023-08-09T15:06:23.937Z,0.60
2023-08-09T15:11:29.007Z,0.50
2023-08-09T15:16:32.801Z,0.67
2023-08-09T15:21:36.430Z,0.40
2023-08-09T15:26:43.529Z,0.33
2023-08-09T15:31:49.040Z,0.50
2023-08-09T15:36:52.795Z,0.60
2023-08-09T15:42:07.587Z,0.60
2023-08-09T15:47:18.571Z,0.50
2023-08-09T15:52:22.572Z,0.50
2023-08-09T15:57:27.595Z,0.50
2023-08-09T16:02:31.340Z,0.60
2023-08-09T16:07:35.040Z,0.50
2023-08-09T16:12:40.102Z,0.50
2023-08-09T16:17:43.816Z,0.40
2023-08-09T16:22:47.464Z,0.50
2023-08-09T16:27:52.469Z,0.40
2023-08-09T16:32:56.136Z,0.40
2023-08-09T16:37:59.885Z,0.60
2023-08-09T16:43:05.206Z,0.70
2023-08-09T16:48:09.046Z,0.50
2023-08-09T16:53:12.732Z,0.60
2023-08-09T16:58:19.924Z,0.57
2023-08-09T17:03:23.676Z,0.60
2023-08-09T17:08:28.256Z,0.50
2023-08-09T17:13:33.362Z,0.43
2023-08-09T17:18:37.115Z,0.60
2023-08-09T17:23:40.921Z,0.50
2023-08-09T17:28:45.923Z,0.50
2023-08-09T17:33:49.519Z,0.60
2023-08-09T17:38:53.121Z,0.60
2023-08-09T17:43:58.097Z,0.50
2023-08-09T17:49:01.716Z,0.50
2023-08-09T17:54:05.762Z,0.50
2023-08-09T17:59:10.722Z,0.50
2023-08-09T18:04:15.252Z,0.50
2023-08-09T18:09:18.929Z,0.70
2023-08-09T18:14:24.268Z,0.53
2023-08-09T18:19:28.049Z,0.50
2023-08-09T18:24:31.651Z,0.50
2023-08-09T18:29:36.542Z,0.60
2023-08-09T18:34:40.133Z,0.60
2023-08-09T18:39:43.717Z,0.50
2023-08-09T18:44:48.631Z,0.47
2023-08-09T18:49:52.244Z,0.50
2023-08-09T18:54:55.864Z,0.50
2023-08-09T19:00:00.835Z,0.57
2023-08-09T19:05:04.706Z,0.60
2023-08-09T19:10:11.561Z,0.40
2023-08-09T19:15:17.111Z,0.50
2023-08-09T19:20:20.659Z,0.50
2023-08-09T19:25:24.512Z,0.67
2023-08-09T19:30:29.662Z,0.70
2023-08-09T19:35:33.984Z,0.40
2023-08-09T19:40:37.579Z,0.47
2023-08-09T19:45:42.568Z,0.43
2023-08-09T19:50:47.998Z,0.50
2023-08-09T19:55:52.567Z,0.40
2023-08-09T20:00:57.834Z,0.40
2023-08-09T20:06:04.759Z,0.50
2023-08-09T20:11:08.932Z,0.40
2023-08-09T20:16:13.903Z,0.40
2023-08-09T20:21:17.978Z,0.60
2023-08-09T20:26:21.583Z,0.40
2023-08-09T20:31:26.637Z,0.40
2023-08-09T20:36:30.278Z,0.40
2023-08-09T20:41:33.867Z,0.50
2023-08-09T20:46:38.907Z,0.50
2023-08-09T20:51:42.639Z,0.60
2023-08-09T20:56:46.239Z,0.40
2023-08-09T21:01:52.252Z,0.43
2023-08-09T21:06:57.114Z,0.40
2023-08-09T21:12:00.689Z,0.40
2023-08-09T21:17:05.818Z,0.30
2023-08-09T21:22:09.816Z,0.40
2023-08-09T21:27:14.146Z,0.50
2023-08-09T21:32:19.136Z,0.40
2023-08-09T21:37:22.836Z,0.40
2023-08-09T21:42:26.653Z,0.40
2023-08-09T21:47:31.723Z,0.40
2023-08-09T21:52:56.186Z,0.50
2023-08-09T21:57:59.757Z,0.70
2023-08-09T22:03:04.974Z,0.40
2023-08-09T22:08:08.764Z,0.50
2023-08-09T22:13:13.199Z,0.50
2023-08-09T22:18:19.250Z,0.47
2023-08-09T22:23:22.879Z,0.50
2023-08-09T22:28:26.468Z,0.40
2023-08-09T22:33:31.420Z,0.30
2023-08-09T22:38:35.088Z,0.30
2023-08-09T22:43:38.621Z,0.43
2023-08-09T22:48:43.507Z,0.40
2023-08-09T22:53:47.219Z,0.40
2023-08-09T22:58:50.763Z,0.30
2023-08-09T23:03:55.623Z,0.40
2023-08-09T23:08:59.244Z,0.40
2023-08-09T23:14:02.826Z,0.40
2023-08-09T23:19:07.741Z,0.40
2023-08-09T23:24:11.595Z,0.37
2023-08-09T23:29:15.117Z,0.33
2023-08-09T23:34:20.032Z,0.47
2023-08-09T23:39:23.652Z,0.30
2023-08-09T23:44:27.492Z,0.67
2023-08-09T23:49:32.482Z,0.40
2023-08-09T23:54:36.080Z,0.50
2023-08-09T23:59:39.735Z,0.40
